createdAt,value
2018-09-13T00:00:32.027Z,5.80
2018-09-13T00:01:32.018Z,8.10
2018-09-13T00:02:32.007Z,8.20
2018-09-13T00:03:32.038Z,6.30
2018-09-13T00:04:31.983Z,6.20
2018-09-13T00:05:31.983Z,7.10
2018-09-13T00:06:31.963Z,10.40
2018-09-13T00:07:31.956Z,8.30
2018-09-13T00:08:31.975Z,8.30
2018-09-13T00:09:31.929Z,6.40
2018-09-13T00:10:31.919Z,7.70
2018-09-13T00:11:31.919Z,7.40
2018-09-13T00:12:31.899Z,9.30
2018-09-13T00:13:31.927Z,7.20
2018-09-13T00:14:31.873Z,6.20
2018-09-13T00:15:31.877Z,7.70
2018-09-13T00:16:31.848Z,7.50
2018-09-13T00:17:31.859Z,8.20
2018-09-13T00:18:31.880Z,9.50
2018-09-13T00:19:31.827Z,6.90
2018-09-13T00:20:31.811Z,7.10
2018-09-13T00:21:31.802Z,9.20
2018-09-13T00:22:31.790Z,9.70
2018-09-13T00:23:31.825Z,7.10
2018-09-13T00:24:31.775Z,7.40
2018-09-13T00:25:31.750Z,11.20
2018-09-13T00:26:31.743Z,8.60
2018-09-13T00:27:31.738Z,9.40
2018-09-13T00:28:31.755Z,10.00
2018-09-13T00:29:31.751Z,9.50
2018-09-13T00:30:31.715Z,9.50
2018-09-13T00:31:31.695Z,10.10
2018-09-13T00:32:31.674Z,9.00
2018-09-13T00:33:31.676Z,12.20
2018-09-13T00:34:31.791Z,12.90
2018-09-13T00:35:31.643Z,9.50
2018-09-13T00:36:31.649Z,11.10
2018-09-13T00:37:31.619Z,9.90
2018-09-13T00:38:31.608Z,10.90
2018-09-13T00:39:31.660Z,9.10
2018-09-13T00:40:31.588Z,11.60
2018-09-13T00:41:31.579Z,9.40
2018-09-13T00:42:31.584Z,9.30
2018-09-13T00:43:31.553Z,11.10
2018-09-13T00:44:31.580Z,10.30
2018-09-13T00:45:31.536Z,12.20
2018-09-13T00:46:31.520Z,11.30
2018-09-13T00:47:31.511Z,8.30
2018-09-13T00:48:31.552Z,10.60
2018-09-13T00:49:31.473Z,11.10
2018-09-13T00:50:31.461Z,9.20
2018-09-13T00:51:31.489Z,9.90
2018-09-13T00:52:31.445Z,10.30
2018-09-13T00:53:31.442Z,9.80
2018-09-13T00:54:31.434Z,11.00
2018-09-13T00:55:31.407Z,10.90
2018-09-13T00:56:31.443Z,11.40
2018-09-13T00:57:31.385Z,9.80
2018-09-13T00:58:31.419Z,10.80
2018-09-13T00:59:31.375Z,13.20
2018-09-13T01:00:31.359Z,10.00
2018-09-13T01:01:31.348Z,10.80
2018-09-13T01:02:31.335Z,11.70
2018-09-13T01:03:31.355Z,9.00
2018-09-13T01:04:31.307Z,12.80
2018-09-13T01:05:31.297Z,13.30
2018-09-13T01:06:31.341Z,11.00
2018-09-13T01:07:31.286Z,12.90
2018-09-13T01:08:31.274Z,9.40
2018-09-13T01:09:31.280Z,9.70
2018-09-13T01:10:31.246Z,10.60
2018-09-13T01:11:31.237Z,12.10
2018-09-13T01:12:31.229Z,14.60
2018-09-13T01:13:31.211Z,11.00
2018-09-13T01:14:31.251Z,10.40
2018-09-13T01:15:31.195Z,10.00
2018-09-13T01:16:31.177Z,10.00
2018-09-13T01:17:31.158Z,13.90
2018-09-13T01:18:31.164Z,10.70
2018-09-13T01:19:31.183Z,12.40
2018-09-13T01:20:31.135Z,10.40
2018-09-13T01:21:31.175Z,11.90
2018-09-13T01:22:31.117Z,9.60
2018-09-13T01:23:31.106Z,11.50
2018-09-13T01:24:31.105Z,10.90
2018-09-13T01:25:31.091Z,13.90
2018-09-13T01:26:31.106Z,10.50
2018-09-13T01:27:31.097Z,11.40
2018-09-13T01:28:31.059Z,10.50
2018-09-13T01:29:31.037Z,10.50
2018-09-13T01:30:31.035Z,10.00
2018-09-13T01:31:31.017Z,12.10
2018-09-13T01:32:31.043Z,10.70
2018-09-13T01:33:31.008Z,9.60
2018-09-13T01:34:30.978Z,10.90
2018-09-13T01:35:30.971Z,10.80
2018-09-13T01:36:30.967Z,8.10
2018-09-13T01:37:30.983Z,10.70
2018-09-13T01:38:30.938Z,13.10
2018-09-13T01:39:30.927Z,11.20
2018-09-13T01:40:30.916Z,9.60
2018-09-13T01:41:30.899Z,9.80
2018-09-13T01:42:30.939Z,10.30
2018-09-13T01:43:30.882Z,11.60
2018-09-13T01:44:30.867Z,11.40
2018-09-13T01:45:30.864Z,11.90
2018-09-13T01:46:30.859Z,10.90
2018-09-13T01:47:30.861Z,10.30
2018-09-13T01:48:30.858Z,12.20
2018-09-13T01:49:30.816Z,10.70
2018-09-13T01:50:30.807Z,8.80
2018-09-13T01:51:30.790Z,15.30
2018-09-13T01:52:30.838Z,10.70
2018-09-13T01:53:30.757Z,12.30
2018-09-13T01:54:30.759Z,12.10
2018-09-13T01:55:30.741Z,12.00
2018-09-13T01:56:30.734Z,11.70
2018-09-13T01:57:30.756Z,10.20
2018-09-13T01:58:30.703Z,12.50
2018-09-13T01:59:30.693Z,13.10
2018-09-13T02:00:30.699Z,10.50
2018-09-13T02:01:30.675Z,11.00
2018-09-13T02:02:30.689Z,10.70
2018-09-13T02:03:30.653Z,12.00
2018-09-13T02:04:30.675Z,11.10
2018-09-13T02:05:30.629Z,11.60
2018-09-13T02:06:30.627Z,11.00
2018-09-13T02:07:30.609Z,12.30
2018-09-13T02:08:30.634Z,10.90
2018-09-13T02:09:30.594Z,11.60
2018-09-13T02:10:30.581Z,11.40
2018-09-13T02:11:30.565Z,11.00
2018-09-13T02:12:30.570Z,10.60
2018-09-13T02:13:30.575Z,11.50
2018-09-13T02:14:30.531Z,10.60
2018-09-13T02:15:30.521Z,10.30
2018-09-13T02:16:30.513Z,12.80
2018-09-13T02:17:30.500Z,9.70
2018-09-13T02:18:30.539Z,11.40
2018-09-13T02:19:30.507Z,14.40
2018-09-13T02:20:30.469Z,11.10
2018-09-13T02:21:30.459Z,10.80
2018-09-13T02:22:30.450Z,13.90
2018-09-13T02:23:30.428Z,12.50
2018-09-13T02:24:30.470Z,12.00
2018-09-13T02:25:30.399Z,10.50
2018-09-13T02:26:30.386Z,12.40
2018-09-13T02:27:30.384Z,13.80
2018-09-13T02:28:30.401Z,14.70
2018-09-13T02:29:30.357Z,12.20
2018-09-13T02:30:30.403Z,12.30
2018-09-13T02:31:30.331Z,11.70
2018-09-13T02:32:30.325Z,13.90
2018-09-13T02:33:30.309Z,13.30
2018-09-13T02:34:30.334Z,12.30
2018-09-13T02:35:30.297Z,9.50
2018-09-13T02:36:30.298Z,12.20
2018-09-13T02:37:30.272Z,15.60
2018-09-13T02:38:30.249Z,13.00
2018-09-13T02:39:30.293Z,13.50
2018-09-13T02:40:30.265Z,10.10
2018-09-13T02:41:30.272Z,12.90
2018-09-13T02:42:30.235Z,12.70
2018-09-13T02:43:30.199Z,14.40
2018-09-13T02:44:30.197Z,11.10
2018-09-13T02:45:30.208Z,13.30
2018-09-13T02:46:30.193Z,10.70
2018-09-13T02:47:30.161Z,9.60
2018-09-13T02:48:30.144Z,12.90
2018-09-13T02:49:30.137Z,11.00
2018-09-13T02:50:30.125Z,12.50
2018-09-13T02:51:30.157Z,14.70
2018-09-13T02:52:30.103Z,11.10
2018-09-13T02:53:30.081Z,11.50
2018-09-13T02:54:30.099Z,10.90
2018-09-13T02:55:30.066Z,9.40
2018-09-13T02:56:30.107Z,14.20
2018-09-13T02:57:30.049Z,10.00
2018-09-13T02:58:30.043Z,14.50
2018-09-13T02:59:30.039Z,11.10
2018-09-13T03:00:30.029Z,11.90
2018-09-13T03:01:30.047Z,10.20
2018-09-13T03:02:30.001Z,12.40
2018-09-13T03:03:29.981Z,12.10
2018-09-13T03:04:29.981Z,11.10
2018-09-13T03:05:29.957Z,13.30
2018-09-13T03:06:30.004Z,12.20
2018-09-13T03:07:29.975Z,14.00
2018-09-13T03:08:29.939Z,12.30
2018-09-13T03:09:29.919Z,12.80
2018-09-13T03:10:29.903Z,14.50
2018-09-13T03:11:29.895Z,10.80
2018-09-13T03:12:29.931Z,10.10
2018-09-13T03:13:29.865Z,12.20
2018-09-13T03:14:29.863Z,11.30
2018-09-13T03:15:29.847Z,10.50
2018-09-13T03:16:29.845Z,13.60
2018-09-13T03:17:29.866Z,13.30
2018-09-13T03:18:29.825Z,13.60
2018-09-13T03:19:29.806Z,10.90
2018-09-13T03:20:29.858Z,14.10
2018-09-13T03:21:29.787Z,10.90
2018-09-13T03:22:29.883Z,12.70
2018-09-13T03:23:29.762Z,9.90
2018-09-13T03:24:29.761Z,12.50
2018-09-13T03:25:29.745Z,12.50
2018-09-13T03:26:29.722Z,11.20
2018-09-13T03:27:29.760Z,12.00
2018-09-13T03:28:29.703Z,13.60
2018-09-13T03:29:29.682Z,11.60
2018-09-13T03:30:29.685Z,14.20
2018-09-13T03:31:29.663Z,15.30
2018-09-13T03:32:29.700Z,13.80
2018-09-13T03:33:29.640Z,13.00
2018-09-13T03:34:29.627Z,11.90
2018-09-13T03:35:29.625Z,12.60
2018-09-13T03:36:29.608Z,12.00
2018-09-13T03:37:29.629Z,11.80
2018-09-13T03:38:29.621Z,14.90
2018-09-13T03:39:29.566Z,12.50
2018-09-13T03:40:29.565Z,14.50
2018-09-13T03:41:29.554Z,13.40
2018-09-13T03:42:29.549Z,12.20
2018-09-13T03:43:29.562Z,14.00
2018-09-13T03:44:29.521Z,13.30
2018-09-13T03:45:29.507Z,13.40
2018-09-13T03:46:29.493Z,12.60
2018-09-13T03:47:29.486Z,11.70
2018-09-13T03:48:29.509Z,13.10
2018-09-13T03:49:29.494Z,11.00
2018-09-13T03:50:29.460Z,11.60
2018-09-13T03:51:29.438Z,10.90
2018-09-13T03:52:29.432Z,13.30
2018-09-13T03:53:29.420Z,12.70
2018-09-13T03:54:29.458Z,12.00
2018-09-13T03:55:29.393Z,13.60
2018-09-13T03:56:29.379Z,11.90
2018-09-13T03:57:29.374Z,13.60
2018-09-13T03:58:29.365Z,10.90
2018-09-13T03:59:29.383Z,12.40
2018-09-13T04:00:29.375Z,11.10
2018-09-13T04:01:29.335Z,9.80
2018-09-13T04:02:29.315Z,11.40
2018-09-13T04:03:29.476Z,11.10
2018-09-13T04:04:29.305Z,12.00
2018-09-13T04:05:29.330Z,12.00
2018-09-13T04:06:29.274Z,13.30
2018-09-13T04:07:29.274Z,12.50
2018-09-13T04:08:29.253Z,14.60
2018-09-13T04:09:29.249Z,11.10
2018-09-13T04:10:29.283Z,10.70
2018-09-13T04:11:29.240Z,12.90
2018-09-13T04:12:29.215Z,12.00
2018-09-13T04:13:29.202Z,15.30
2018-09-13T04:14:29.189Z,13.20
2018-09-13T04:15:29.221Z,12.70
2018-09-13T04:16:29.167Z,15.60
2018-09-13T04:17:29.170Z,15.00
2018-09-13T04:18:29.143Z,13.20
2018-09-13T04:19:29.138Z,12.90
2018-09-13T04:20:29.163Z,14.60
2018-09-13T04:21:29.117Z,14.10
2018-09-13T04:22:29.197Z,14.40
2018-09-13T04:23:29.103Z,15.40
2018-09-13T04:24:29.087Z,11.90
2018-09-13T04:25:29.065Z,12.50
2018-09-13T04:26:29.052Z,13.30
2018-09-13T04:27:29.085Z,14.10
2018-09-13T04:28:29.037Z,12.40
2018-09-13T04:29:29.031Z,12.80
2018-09-13T04:30:29.009Z,14.70
2018-09-13T04:31:28.999Z,12.20
2018-09-13T04:32:29.021Z,11.90
2018-09-13T04:33:28.967Z,12.50
2018-09-13T04:34:28.962Z,13.10
2018-09-13T04:35:29.089Z,13.90
2018-09-13T04:36:28.945Z,16.20
2018-09-13T04:37:28.969Z,12.70
2018-09-13T04:38:28.909Z,12.60
2018-09-13T04:39:28.908Z,14.50
2018-09-13T04:40:28.892Z,14.30
2018-09-13T04:41:28.886Z,11.90
2018-09-13T04:42:28.912Z,12.80
2018-09-13T04:43:28.859Z,15.90
2018-09-13T04:44:28.855Z,13.20
2018-09-13T04:45:28.834Z,12.40
2018-09-13T04:46:28.828Z,13.90
2018-09-13T04:47:28.850Z,13.20
2018-09-13T04:48:28.805Z,12.10
2018-09-13T04:49:28.783Z,13.40
2018-09-13T04:50:28.777Z,12.80
2018-09-13T04:51:28.780Z,11.90
2018-09-13T04:52:28.787Z,12.90
2018-09-13T04:53:28.794Z,16.10
2018-09-13T04:54:28.740Z,14.90
2018-09-13T04:55:28.722Z,12.10
2018-09-13T04:56:28.716Z,16.20
2018-09-13T04:57:28.700Z,14.20
2018-09-13T04:58:28.739Z,13.60
2018-09-13T04:59:28.696Z,14.20
2018-09-13T05:00:28.677Z,15.80
2018-09-13T05:01:28.656Z,14.20
2018-09-13T05:02:28.641Z,17.40
2018-09-13T05:03:28.673Z,14.70
2018-09-13T05:04:28.633Z,13.80
2018-09-13T05:05:28.651Z,15.30
2018-09-13T05:06:28.622Z,14.30
2018-09-13T05:07:28.611Z,13.50
2018-09-13T05:08:28.617Z,14.30
2018-09-13T05:09:28.617Z,14.00
2018-09-13T05:10:28.561Z,14.30
2018-09-13T05:11:28.551Z,13.60
2018-09-13T05:12:28.544Z,15.00
2018-09-13T05:13:28.533Z,16.10
2018-09-13T05:14:28.573Z,12.10
2018-09-13T05:15:28.509Z,12.80
2018-09-13T05:16:28.499Z,15.70
2018-09-13T05:17:28.492Z,14.50
2018-09-13T05:18:28.534Z,11.20
2018-09-13T05:19:28.543Z,15.60
2018-09-13T05:20:28.457Z,14.10
2018-09-13T05:21:28.455Z,15.40
2018-09-13T05:22:28.463Z,14.90
2018-09-13T05:23:28.421Z,12.20
2018-09-13T05:24:28.445Z,13.30
2018-09-13T05:25:28.411Z,14.50
2018-09-13T05:26:28.423Z,15.30
2018-09-13T05:27:28.419Z,13.20
2018-09-13T05:28:28.377Z,13.00
2018-09-13T05:29:28.373Z,13.00
2018-09-13T05:30:28.387Z,13.70
2018-09-13T05:31:28.363Z,11.30
2018-09-13T05:32:28.361Z,12.40
2018-09-13T05:33:28.319Z,16.80
2018-09-13T05:34:28.300Z,13.00
2018-09-13T05:35:28.323Z,14.70
2018-09-13T05:36:28.286Z,16.70
2018-09-13T05:37:28.300Z,14.20
2018-09-13T05:38:28.258Z,16.30
2018-09-13T05:39:28.285Z,14.70
2018-09-13T05:40:28.269Z,14.60
2018-09-13T05:41:28.215Z,11.30
2018-09-13T05:42:28.195Z,17.00
2018-09-13T05:43:28.228Z,11.70
2018-09-13T05:44:28.219Z,12.70
2018-09-13T05:45:28.211Z,12.60
2018-09-13T05:46:28.167Z,14.50
2018-09-13T05:47:28.145Z,12.70
2018-09-13T05:48:28.130Z,11.20
2018-09-13T05:49:28.176Z,12.60
2018-09-13T05:50:28.152Z,11.20
2018-09-13T05:51:28.172Z,14.40
2018-09-13T05:52:28.150Z,11.30
2018-09-13T05:53:28.114Z,12.40
2018-09-13T05:54:28.066Z,15.40
2018-09-13T05:55:28.109Z,10.10
2018-09-13T05:56:28.073Z,11.80
2018-09-13T05:57:28.066Z,12.50
2018-09-13T05:58:28.072Z,12.90
2018-09-13T05:59:28.018Z,10.60
2018-09-13T06:00:28.048Z,13.80
2018-09-13T06:01:28.053Z,13.10
2018-09-13T06:02:27.994Z,16.10
2018-09-13T06:03:27.970Z,12.70
2018-09-13T06:04:27.944Z,13.00
2018-09-13T06:05:27.976Z,13.00
2018-09-13T06:06:27.977Z,12.90
2018-09-13T06:07:27.920Z,14.00
2018-09-13T06:08:27.926Z,14.40
2018-09-13T06:09:27.903Z,11.30
2018-09-13T06:10:27.916Z,11.30
2018-09-13T06:11:27.979Z,12.00
2018-09-13T06:12:27.887Z,21.00
2018-09-13T06:13:27.871Z,14.00
2018-09-13T06:14:27.839Z,13.10
2018-09-13T06:15:27.903Z,12.90
2018-09-13T06:16:27.875Z,12.20
2018-09-13T06:17:27.825Z,11.10
2018-09-13T06:18:27.832Z,12.80
2018-09-13T06:19:27.867Z,13.10
2018-09-13T06:20:27.805Z,11.00
2018-09-13T06:21:27.841Z,11.60
2018-09-13T06:22:27.759Z,10.90
2018-09-13T06:23:27.759Z,10.00
2018-09-13T06:24:27.748Z,11.80
2018-09-13T06:25:27.710Z,12.00
2018-09-13T06:26:27.746Z,9.30
2018-09-13T06:27:27.750Z,13.00
2018-09-13T06:28:27.690Z,13.50
2018-09-13T06:29:27.678Z,11.00
2018-09-13T06:30:27.679Z,10.80
2018-09-13T06:31:27.728Z,12.50
2018-09-13T06:32:27.646Z,12.50
2018-09-13T06:33:27.664Z,10.80
2018-09-13T06:34:27.625Z,11.10
2018-09-13T06:35:27.617Z,13.10
2018-09-13T06:36:27.689Z,11.90
2018-09-13T06:37:27.574Z,10.50
2018-09-13T06:38:27.648Z,11.80
2018-09-13T06:39:27.573Z,10.60
2018-09-13T06:40:27.557Z,14.40
2018-09-13T06:41:27.589Z,10.60
2018-09-13T06:42:27.708Z,13.20
2018-09-13T06:43:27.593Z,10.00
2018-09-13T06:44:27.574Z,12.10
2018-09-13T06:45:27.567Z,14.50
2018-09-13T06:46:27.523Z,9.20
2018-09-13T06:47:27.521Z,10.00
2018-09-13T06:48:27.514Z,10.10
2018-09-13T06:49:27.475Z,10.00
2018-09-13T06:50:27.527Z,11.20
2018-09-13T06:51:27.462Z,11.20
2018-09-13T06:52:27.426Z,11.90
2018-09-13T06:53:27.450Z,13.00
2018-09-13T06:54:27.397Z,13.00
2018-09-13T06:55:27.408Z,9.90
2018-09-13T06:56:27.385Z,11.00
2018-09-13T06:57:27.383Z,9.30
2018-09-13T06:58:27.388Z,13.00
2018-09-13T06:59:27.413Z,11.80
2018-09-13T07:00:27.354Z,9.90
2018-09-13T07:01:27.413Z,11.10
2018-09-13T07:02:27.349Z,10.90
2018-09-13T07:03:27.393Z,9.80
2018-09-13T07:04:27.310Z,13.50
2018-09-13T07:05:27.323Z,11.00
2018-09-13T07:06:27.297Z,11.90
2018-09-13T07:07:27.305Z,10.40
2018-09-13T07:08:27.242Z,12.20
2018-09-13T07:09:27.292Z,11.90
2018-09-13T07:10:27.311Z,12.00
2018-09-13T07:11:27.216Z,13.20
2018-09-13T07:12:27.260Z,12.50
2018-09-13T07:13:27.198Z,13.90
2018-09-13T07:14:27.249Z,12.00
2018-09-13T07:15:27.156Z,14.20
2018-09-13T07:16:27.193Z,13.60
2018-09-13T07:17:27.147Z,13.80
2018-09-13T07:18:27.169Z,13.40
2018-09-13T07:19:27.110Z,12.70
2018-09-13T07:20:27.106Z,12.10
2018-09-13T07:21:27.184Z,12.50
2018-09-13T07:22:27.094Z,12.10
2018-09-13T07:23:27.178Z,11.10
2018-09-13T07:24:27.082Z,10.10
2018-09-13T07:25:27.062Z,11.60
2018-09-13T07:26:27.074Z,11.30
2018-09-13T07:27:27.026Z,11.90
2018-09-13T07:28:27.036Z,10.60
2018-09-13T07:29:27.001Z,12.40
2018-09-13T07:30:26.993Z,12.70
2018-09-13T07:31:27.038Z,12.90
2018-09-13T07:32:26.992Z,12.90
2018-09-13T07:33:26.985Z,13.10
2018-09-13T07:34:26.978Z,12.90
2018-09-13T07:35:26.985Z,10.10
2018-09-13T07:36:27.004Z,10.50
2018-09-13T07:37:26.914Z,14.40
2018-09-13T07:38:26.910Z,12.10
2018-09-13T07:39:26.952Z,11.40
2018-09-13T07:40:26.910Z,11.70
2018-09-13T07:41:26.913Z,11.90
2018-09-13T07:42:26.937Z,12.60
2018-09-13T07:43:26.839Z,11.30
2018-09-13T07:44:26.858Z,12.70
2018-09-13T07:45:26.860Z,14.00
2018-09-13T07:46:26.842Z,11.60
2018-09-13T07:47:26.863Z,11.10
2018-09-13T07:48:26.799Z,9.30
2018-09-13T07:49:26.842Z,11.30
2018-09-13T07:50:26.789Z,10.50
2018-09-13T07:51:26.782Z,13.90
2018-09-13T07:52:26.830Z,10.30
2018-09-13T07:53:26.789Z,13.90
2018-09-13T07:54:26.777Z,11.70
2018-09-13T07:55:26.732Z,15.60
2018-09-13T07:56:26.750Z,11.40
2018-09-13T07:57:26.748Z,10.50
2018-09-13T07:58:26.693Z,11.80
2018-09-13T07:59:26.718Z,11.40
2018-09-13T08:00:26.682Z,12.20
2018-09-13T08:01:26.652Z,10.20
2018-09-13T08:02:26.682Z,9.00
2018-09-13T08:03:26.658Z,9.80
2018-09-13T08:04:26.620Z,11.60
2018-09-13T08:05:26.614Z,8.80
2018-09-13T08:06:26.592Z,14.40
2018-09-13T08:07:26.628Z,10.70
2018-09-13T08:08:26.586Z,10.60
2018-09-13T08:09:26.594Z,12.40
2018-09-13T08:10:26.576Z,9.30
2018-09-13T08:11:26.566Z,10.60
2018-09-13T08:12:26.556Z,11.90
2018-09-13T08:13:26.548Z,9.50
2018-09-13T08:14:26.530Z,13.70
2018-09-13T08:15:26.492Z,11.70
2018-09-13T08:16:26.512Z,12.10
2018-09-13T08:17:26.473Z,8.20
2018-09-13T08:18:26.522Z,7.00
2018-09-13T08:19:26.464Z,9.80
2018-09-13T08:20:26.439Z,9.80
2018-09-13T08:21:26.438Z,10.70
2018-09-13T08:22:26.429Z,10.70
2018-09-13T08:23:26.438Z,12.70
2018-09-13T08:24:26.418Z,9.20
2018-09-13T08:25:26.373Z,11.70
2018-09-13T08:26:26.394Z,11.40
2018-09-13T08:27:26.359Z,11.00
2018-09-13T08:28:26.340Z,11.70
2018-09-13T08:29:26.366Z,9.80
2018-09-13T08:30:26.329Z,9.70
2018-09-13T08:31:26.304Z,11.90
2018-09-13T08:32:26.306Z,11.20
2018-09-13T08:33:26.455Z,11.20
2018-09-13T08:34:26.328Z,9.10
2018-09-13T08:35:26.310Z,8.40
2018-09-13T08:36:26.269Z,8.20
2018-09-13T08:37:26.241Z,8.80
2018-09-13T08:38:26.243Z,9.80
2018-09-13T08:39:26.274Z,9.80
2018-09-13T08:40:26.216Z,7.40
2018-09-13T08:41:26.199Z,9.10
2018-09-13T08:42:26.224Z,9.50
2018-09-13T08:43:26.185Z,9.60
2018-09-13T08:44:26.219Z,9.60
2018-09-13T08:45:26.170Z,9.80
2018-09-13T08:46:26.148Z,8.20
2018-09-13T08:47:26.169Z,8.10
2018-09-13T08:48:26.176Z,9.30
2018-09-13T08:49:26.162Z,8.60
2018-09-13T08:50:26.148Z,9.20
2018-09-13T08:51:26.088Z,7.60
2018-09-13T08:52:26.080Z,7.10
2018-09-13T08:53:26.100Z,10.40
2018-09-13T08:54:26.056Z,8.40
2018-09-13T08:55:26.088Z,8.40
2018-09-13T08:56:26.038Z,10.00
2018-09-13T08:57:26.014Z,8.80
2018-09-13T08:58:26.010Z,11.90
2018-09-13T08:59:25.998Z,9.80
2018-09-13T09:00:26.053Z,7.20
2018-09-13T09:01:26.010Z,8.00
2018-09-13T09:02:25.952Z,10.10
2018-09-13T09:03:25.974Z,9.00
2018-09-13T09:04:25.966Z,7.40
2018-09-13T09:05:25.970Z,8.30
2018-09-13T09:06:25.961Z,10.20
2018-09-13T09:07:25.909Z,9.10
2018-09-13T09:08:25.904Z,10.20
2018-09-13T09:09:25.888Z,7.40
2018-09-13T09:10:25.940Z,8.90
2018-09-13T09:11:25.868Z,7.70
2018-09-13T09:12:25.886Z,8.30
2018-09-13T09:13:25.924Z,8.90
2018-09-13T09:14:25.838Z,9.60
2018-09-13T09:15:25.813Z,5.90
2018-09-13T09:16:25.859Z,9.80
2018-09-13T09:17:25.870Z,8.20
2018-09-13T09:18:25.866Z,9.70
2018-09-13T09:19:25.766Z,7.50
2018-09-13T09:20:25.766Z,7.90
2018-09-13T09:21:25.808Z,8.60
2018-09-13T09:22:25.786Z,8.20
2018-09-13T09:23:25.748Z,7.70
2018-09-13T09:24:25.732Z,9.90
2018-09-13T09:25:25.714Z,7.70
2018-09-13T09:26:25.805Z,7.90
2018-09-13T09:27:25.681Z,8.20
2018-09-13T09:28:25.710Z,7.30
2018-09-13T09:29:25.849Z,7.00
2018-09-13T09:30:25.705Z,8.60
2018-09-13T09:31:25.680Z,6.20
2018-09-13T09:32:25.687Z,7.20
2018-09-13T09:33:25.668Z,6.30
2018-09-13T09:34:25.615Z,6.90
2018-09-13T09:35:25.599Z,6.20
2018-09-13T09:36:25.586Z,6.50
2018-09-13T09:37:25.585Z,5.70
2018-09-13T09:38:25.598Z,6.00
2018-09-13T09:39:25.678Z,5.60
2018-09-13T09:40:25.620Z,7.60
2018-09-13T09:41:25.538Z,7.40
2018-09-13T09:42:25.520Z,5.80
2018-09-13T09:43:25.548Z,5.60
2018-09-13T09:44:25.515Z,5.80
2018-09-13T09:45:25.662Z,6.80
2018-09-13T09:46:25.483Z,6.90
2018-09-13T09:47:25.462Z,6.30
2018-09-13T09:48:25.463Z,6.10
2018-09-13T09:49:25.519Z,8.10
2018-09-13T09:50:25.451Z,7.00
2018-09-13T09:51:25.440Z,8.10
2018-09-13T09:52:25.527Z,5.60
2018-09-13T09:53:25.403Z,6.80
2018-09-13T09:54:25.444Z,8.40
2018-09-13T09:55:25.412Z,7.70
2018-09-13T09:56:25.369Z,6.30
2018-09-13T09:57:25.366Z,7.40
2018-09-13T09:58:25.339Z,7.50
2018-09-13T09:59:25.345Z,6.10
2018-09-13T10:00:25.390Z,6.20
2018-09-13T10:01:25.309Z,7.40
2018-09-13T10:02:25.307Z,6.20
2018-09-13T10:03:25.303Z,8.30
2018-09-13T10:04:25.304Z,7.80
2018-09-13T10:05:25.318Z,8.60
2018-09-13T10:06:25.285Z,6.90
2018-09-13T10:07:25.242Z,7.10
2018-09-13T10:08:25.234Z,6.90
2018-09-13T10:09:25.232Z,11.60
2018-09-13T10:10:25.214Z,6.90
2018-09-13T10:11:25.236Z,6.10
2018-09-13T10:12:25.202Z,5.30
2018-09-13T10:13:25.225Z,5.00
2018-09-13T10:14:25.175Z,5.80
2018-09-13T10:15:25.181Z,6.00
2018-09-13T10:16:25.196Z,6.10
2018-09-13T10:17:25.137Z,5.10
2018-09-13T10:18:25.132Z,6.20
2018-09-13T10:19:25.118Z,7.50
2018-09-13T10:20:25.112Z,5.70
2018-09-13T10:21:25.136Z,5.50
2018-09-13T10:22:25.089Z,4.00
2018-09-13T10:23:25.078Z,5.10
2018-09-13T10:24:25.072Z,6.00
2018-09-13T10:25:25.056Z,5.50
2018-09-13T10:26:25.084Z,4.60
2018-09-13T10:27:25.054Z,6.90
2018-09-13T10:28:25.073Z,6.90
2018-09-13T10:29:25.047Z,7.00
2018-09-13T10:30:25.076Z,4.50
2018-09-13T10:31:24.997Z,7.60
2018-09-13T10:32:24.997Z,5.80
2018-09-13T10:33:24.988Z,6.50
2018-09-13T10:34:24.975Z,6.40
2018-09-13T10:35:25.008Z,6.80
2018-09-13T10:36:24.948Z,6.20
2018-09-13T10:37:24.951Z,4.60
2018-09-13T10:38:24.932Z,7.40
2018-09-13T10:39:24.943Z,5.80
2018-09-13T10:40:25.048Z,8.70
2018-09-13T10:41:24.895Z,7.60
2018-09-13T10:42:24.884Z,4.80
2018-09-13T10:43:24.862Z,6.50
2018-09-13T10:44:24.864Z,6.40
2018-09-13T10:45:24.896Z,6.50
2018-09-13T10:46:24.838Z,11.00
2018-09-13T10:47:24.857Z,7.10
2018-09-13T10:48:24.820Z,7.10
2018-09-13T10:49:24.808Z,8.60
2018-09-13T10:50:24.876Z,8.60
2018-09-13T10:51:24.786Z,11.20
2018-09-13T10:52:24.887Z,8.50
2018-09-13T10:53:24.762Z,5.60
2018-09-13T10:54:24.823Z,6.50
2018-09-13T10:55:24.810Z,7.00
2018-09-13T10:56:24.744Z,4.90
2018-09-13T10:57:24.740Z,6.60
2018-09-13T10:58:24.720Z,7.90
2018-09-13T10:59:24.712Z,6.50
2018-09-13T11:00:24.745Z,8.00
2018-09-13T11:01:24.694Z,8.10
2018-09-13T11:02:24.684Z,7.00
2018-09-13T11:03:24.704Z,5.00
2018-09-13T11:04:24.741Z,6.00
2018-09-13T11:05:24.651Z,6.00
2018-09-13T11:06:24.688Z,5.60
2018-09-13T11:07:24.636Z,5.00
2018-09-13T11:08:24.620Z,7.10
2018-09-13T11:09:24.636Z,4.80
2018-09-13T11:10:24.604Z,6.30
2018-09-13T11:11:24.655Z,5.80
2018-09-13T11:12:24.587Z,8.30
2018-09-13T11:13:24.592Z,9.90
2018-09-13T11:14:24.563Z,7.60
2018-09-13T11:15:24.866Z,5.10
2018-09-13T11:16:24.606Z,8.20
2018-09-13T11:17:24.526Z,5.80
2018-09-13T11:18:24.928Z,5.20
2018-09-13T11:19:24.953Z,6.60
2018-09-13T11:20:24.494Z,5.20
2018-09-13T11:21:25.331Z,7.10
2018-09-13T11:22:24.712Z,10.30
2018-09-13T11:23:24.555Z,6.70
2018-09-13T11:24:24.922Z,4.50
2018-09-13T11:25:24.845Z,7.50
2018-09-13T11:26:25.302Z,6.00
2018-09-13T11:27:24.942Z,7.70
2018-09-13T11:28:24.414Z,7.30
2018-09-13T11:29:24.387Z,9.80
2018-09-13T11:30:24.384Z,10.00
2018-09-13T11:31:24.369Z,9.40
2018-09-13T11:32:24.400Z,9.20
2018-09-13T11:33:24.359Z,8.80
2018-09-13T11:34:24.337Z,10.60
2018-09-13T11:35:24.329Z,8.20
2018-09-13T11:36:24.313Z,8.70
2018-09-13T11:37:24.354Z,7.20
2018-09-13T11:38:24.292Z,6.70
2018-09-13T11:39:24.298Z,6.90
2018-09-13T11:40:24.368Z,9.40
2018-09-13T11:41:24.310Z,7.70
2018-09-13T11:42:24.288Z,8.00
2018-09-13T11:43:24.559Z,7.10
2018-09-13T11:44:24.263Z,7.10
2018-09-13T11:45:24.215Z,6.30
2018-09-13T11:46:24.616Z,9.30
2018-09-13T11:47:24.255Z,6.80
2018-09-13T11:48:24.186Z,6.70
2018-09-13T11:49:24.172Z,10.80
2018-09-13T11:50:24.597Z,8.40
2018-09-13T11:51:24.157Z,7.00
2018-09-13T11:52:24.186Z,7.90
2018-09-13T11:53:24.129Z,8.00
2018-09-13T11:54:24.136Z,4.90
2018-09-13T11:55:24.119Z,5.30
2018-09-13T11:56:24.106Z,5.60
2018-09-13T11:57:24.125Z,6.40
2018-09-13T11:58:24.131Z,5.50
2018-09-13T11:59:24.069Z,6.40
2018-09-13T12:00:24.065Z,6.90
2018-09-13T12:01:24.054Z,5.00
2018-09-13T12:02:24.050Z,6.00
2018-09-13T12:03:24.093Z,7.40
2018-09-13T12:04:24.023Z,6.20
2018-09-13T12:05:24.020Z,5.40
2018-09-13T12:06:24.020Z,7.00
2018-09-13T12:07:23.993Z,6.80
2018-09-13T12:08:24.035Z,6.00
2018-09-13T12:09:24.392Z,5.00
2018-09-13T12:10:23.968Z,7.70
2018-09-13T12:11:23.954Z,7.60
2018-09-13T12:12:23.945Z,7.50
2018-09-13T12:13:23.986Z,5.70
2018-09-13T12:14:23.926Z,8.50
2018-09-13T12:15:23.913Z,9.30
2018-09-13T12:16:23.900Z,7.90
2018-09-13T12:17:23.898Z,7.60
2018-09-13T12:18:23.984Z,6.40
2018-09-13T12:19:23.903Z,7.50
2018-09-13T12:20:23.874Z,9.20
2018-09-13T12:21:23.854Z,9.20
2018-09-13T12:22:23.923Z,10.60
2018-09-13T12:23:23.830Z,9.70
2018-09-13T12:24:23.846Z,7.60
2018-09-13T12:25:23.806Z,9.20
2018-09-13T12:26:23.809Z,8.00
2018-09-13T12:27:23.808Z,7.20
2018-09-13T12:28:23.814Z,7.40
2018-09-13T12:29:23.808Z,7.50
2018-09-13T12:30:23.752Z,6.40
2018-09-13T12:31:23.741Z,6.70
2018-09-13T12:32:23.734Z,8.30
2018-09-13T12:33:23.757Z,7.20
2018-09-13T12:34:23.705Z,7.10
2018-09-13T12:35:23.697Z,9.10
2018-09-13T12:36:23.676Z,8.40
2018-09-13T12:37:23.677Z,7.20
2018-09-13T12:38:23.698Z,6.20
2018-09-13T12:39:23.694Z,9.10
2018-09-13T12:40:23.638Z,7.60
2018-09-13T12:41:23.662Z,7.40
2018-09-13T12:42:23.613Z,6.60
2018-09-13T12:43:23.609Z,8.30
2018-09-13T12:44:23.625Z,6.80
2018-09-13T12:45:23.631Z,6.40
2018-09-13T12:46:23.571Z,9.80
2018-09-13T12:47:23.608Z,8.70
2018-09-13T12:48:23.546Z,6.40
2018-09-13T12:49:23.599Z,6.40
2018-09-13T12:50:23.524Z,8.30
2018-09-13T12:51:23.514Z,8.50
2018-09-13T12:52:23.580Z,8.20
2018-09-13T12:53:23.499Z,7.60
2018-09-13T12:54:23.517Z,6.60
2018-09-13T12:55:23.484Z,5.90
2018-09-13T12:56:23.504Z,8.40
2018-09-13T12:57:23.460Z,8.20
2018-09-13T12:58:23.447Z,7.50
2018-09-13T12:59:23.426Z,7.10
2018-09-13T13:00:23.448Z,7.60
2018-09-13T13:01:23.437Z,8.40
2018-09-13T13:02:23.397Z,7.50
2018-09-13T13:03:23.397Z,7.50